createdAt,value
2019-05-23T00:00:29.217Z,4.72
2019-05-23T00:03:21.706Z,4.22
2019-05-23T00:06:13.909Z,4.03
2019-05-23T00:09:03.760Z,4.25
2019-05-23T00:11:47.710Z,5.03
2019-05-23T00:14:33.994Z,5.03
2019-05-23T00:17:06.364Z,4.28
2019-05-23T00:19:38.575Z,4.60
2019-05-23T00:22:11.674Z,4.50
2019-05-23T00:24:43.388Z,4.70
2019-05-23T00:27:16.389Z,5.22
2019-05-23T00:29:49.225Z,4.65
2019-05-23T00:32:28.830Z,4.67
2019-05-23T00:35:00.663Z,4.53
2019-05-23T00:37:33.915Z,4.42
2019-05-23T00:40:06.701Z,4.42
2019-05-23T00:42:37.988Z,5.28
2019-05-23T00:45:10.461Z,5.30
2019-05-23T00:47:41.885Z,5.05
2019-05-23T00:50:13.894Z,5.55
2019-05-23T00:52:45.455Z,5.10
2019-05-23T00:55:17.465Z,5.53
2019-05-23T00:57:49.457Z,5.20
2019-05-23T01:00:24.499Z,4.80
2019-05-23T01:02:56.972Z,4.78
2019-05-23T01:05:29.814Z,5.22
2019-05-23T01:08:01.776Z,5.20
2019-05-23T01:10:33.571Z,4.80
2019-05-23T01:13:06.164Z,5.10
2019-05-23T01:15:39.519Z,5.53
2019-05-23T01:18:11.836Z,5.47
2019-05-23T01:21:02.059Z,4.90
2019-05-23T01:23:38.000Z,5.05
2019-05-23T01:26:10.303Z,5.22
2019-05-23T01:28:41.608Z,5.00
2019-05-23T01:31:16.994Z,4.65
2019-05-23T01:33:49.456Z,4.42
2019-05-23T01:36:21.232Z,5.33
2019-05-23T01:38:53.175Z,4.83
2019-05-23T01:41:26.725Z,4.35
2019-05-23T01:44:00.324Z,5.45
2019-05-23T01:46:31.654Z,4.67
2019-05-23T01:49:03.385Z,5.35
2019-05-23T01:51:35.266Z,5.08
2019-05-23T01:54:07.164Z,4.70
2019-05-23T01:56:39.344Z,4.28
2019-05-23T01:59:10.648Z,4.75
2019-05-23T02:01:42.015Z,4.95
2019-05-23T02:04:13.584Z,5.15
2019-05-23T02:06:44.967Z,4.95
2019-05-23T02:09:16.534Z,5.22
2019-05-23T02:11:49.102Z,4.92
2019-05-23T02:14:21.541Z,4.87
2019-05-23T02:16:52.846Z,4.67
2019-05-23T02:19:24.155Z,4.92
2019-05-23T02:21:55.732Z,5.40
2019-05-23T02:24:27.657Z,5.05
2019-05-23T02:27:00.093Z,5.00
2019-05-23T02:29:32.434Z,4.65
2019-05-23T02:32:05.520Z,4.40
2019-05-23T02:34:37.380Z,5.25
2019-05-23T02:37:17.110Z,6.00
2019-05-23T02:39:53.540Z,4.87
2019-05-23T02:42:41.563Z,4.87
2019-05-23T02:45:19.155Z,4.83
2019-05-23T02:47:50.447Z,5.55
2019-05-23T02:50:36.964Z,4.72
2019-05-23T02:53:09.257Z,4.65
2019-05-23T02:55:40.903Z,4.65
2019-05-23T02:58:30.479Z,4.83
2019-05-23T03:01:53.304Z,4.95
2019-05-23T03:04:25.676Z,4.35
2019-05-23T03:06:59.357Z,4.90
2019-05-23T03:09:55.032Z,4.72
2019-05-23T03:12:27.987Z,4.72
2019-05-23T03:15:01.282Z,4.67
2019-05-23T03:17:34.714Z,4.97
2019-05-23T03:20:08.664Z,3.85
2019-05-23T03:22:49.163Z,4.47
2019-05-23T03:26:21.021Z,4.15
2019-05-23T03:28:52.342Z,4.45
2019-05-23T03:31:34.752Z,4.83
2019-05-23T03:34:08.180Z,4.37
2019-05-23T03:36:40.872Z,4.37
2019-05-23T03:39:12.823Z,4.50
2019-05-23T03:41:44.125Z,4.03
2019-05-23T03:44:15.394Z,4.87
2019-05-23T03:46:49.530Z,4.50
2019-05-23T03:49:21.014Z,4.22
2019-05-23T03:51:54.596Z,4.50
2019-05-23T03:54:27.791Z,4.55
2019-05-23T03:56:59.600Z,4.22
2019-05-23T03:59:33.459Z,4.33
2019-05-23T04:02:04.835Z,4.67
2019-05-23T04:04:36.798Z,4.42
2019-05-23T04:07:08.969Z,3.70
2019-05-23T04:09:40.250Z,4.42
2019-05-23T04:12:11.613Z,4.35
2019-05-23T04:14:43.140Z,4.37
2019-05-23T04:17:15.178Z,4.55
2019-05-23T04:19:47.732Z,4.05
2019-05-23T04:22:19.206Z,3.87
2019-05-23T04:24:51.643Z,4.35
2019-05-23T04:27:23.124Z,4.90
2019-05-23T04:29:54.408Z,3.75
2019-05-23T04:32:25.954Z,4.05
2019-05-23T04:34:58.001Z,4.28
2019-05-23T04:37:29.764Z,3.72
2019-05-23T04:40:01.033Z,4.20
2019-05-23T04:42:32.924Z,4.08
2019-05-23T04:45:04.557Z,3.67
2019-05-23T04:47:38.045Z,4.00
2019-05-23T04:50:10.177Z,3.77
2019-05-23T04:52:41.542Z,3.33
2019-05-23T04:55:14.909Z,3.77
2019-05-23T04:57:47.103Z,3.70
2019-05-23T05:00:19.556Z,4.22
2019-05-23T05:02:50.871Z,4.15
2019-05-23T05:05:24.684Z,3.90
2019-05-23T05:07:56.433Z,3.80
2019-05-23T05:10:27.713Z,3.50
2019-05-23T05:12:59.285Z,3.50
2019-05-23T05:15:30.653Z,3.70
2019-05-23T05:18:02.376Z,3.95
2019-05-23T05:20:33.801Z,3.70
2019-05-23T05:23:05.389Z,3.98
2019-05-23T05:25:37.090Z,3.70
2019-05-23T05:28:08.698Z,3.87
2019-05-23T05:30:40.561Z,3.92
2019-05-23T05:33:11.869Z,3.90
2019-05-23T05:35:43.438Z,3.90
2019-05-23T05:38:15.446Z,3.95
2019-05-23T05:40:46.917Z,3.60
2019-05-23T05:43:18.262Z,3.62
2019-05-23T05:45:49.574Z,4.72
2019-05-23T05:48:21.264Z,5.70
2019-05-23T05:50:53.010Z,6.62
2019-05-23T05:53:24.812Z,7.17
2019-05-23T05:55:56.125Z,6.78
2019-05-23T05:58:27.454Z,6.83
2019-05-23T06:01:03.695Z,7.37
2019-05-23T06:03:34.982Z,7.12
2019-05-23T06:06:12.906Z,7.47
2019-05-23T06:08:44.878Z,6.00
2019-05-23T06:11:16.362Z,6.30
2019-05-23T06:13:47.984Z,4.87
2019-05-23T06:16:19.395Z,4.42
2019-05-23T06:18:50.728Z,4.55
2019-05-23T06:21:24.127Z,4.78
2019-05-23T06:23:56.028Z,4.30
2019-05-23T06:26:27.337Z,4.10
2019-05-23T06:28:58.679Z,3.83
2019-05-23T06:31:32.064Z,3.40
2019-05-23T06:34:03.374Z,3.47
2019-05-23T06:36:34.755Z,3.58
2019-05-23T06:39:08.245Z,3.10
2019-05-23T06:41:39.974Z,2.92
2019-05-23T06:44:11.841Z,2.92
2019-05-23T06:46:43.219Z,3.50
2019-05-23T06:49:14.694Z,3.15
2019-05-23T06:51:46.245Z,2.98
2019-05-23T06:54:17.838Z,2.90
2019-05-23T06:56:49.147Z,3.27
2019-05-23T06:59:20.768Z,3.25
2019-05-23T07:01:52.044Z,2.70
2019-05-23T07:04:23.327Z,3.02
2019-05-23T07:06:56.078Z,2.70
2019-05-23T07:09:28.579Z,2.70
2019-05-23T07:12:00.866Z,2.75
2019-05-23T07:14:32.444Z,3.00
2019-05-23T07:17:04.907Z,2.85
2019-05-23T07:19:36.344Z,2.77
2019-05-23T07:22:07.634Z,2.52
2019-05-23T07:24:55.167Z,2.52
2019-05-23T07:27:12.112Z,2.85
2019-05-23T07:29:43.505Z,2.90
2019-05-23T07:32:14.806Z,2.62
2019-05-23T07:34:47.314Z,3.00
2019-05-23T07:37:18.637Z,2.85
2019-05-23T07:39:50.310Z,2.70
2019-05-23T07:42:21.670Z,2.98
2019-05-23T07:44:54.616Z,2.80
2019-05-23T07:47:26.188Z,2.90
2019-05-23T07:49:57.511Z,2.50
2019-05-23T07:52:28.984Z,2.65
2019-05-23T07:55:08.016Z,2.77
2019-05-23T07:57:39.929Z,3.02
2019-05-23T08:00:18.395Z,2.90
2019-05-23T08:02:52.303Z,3.20
2019-05-23T08:05:23.688Z,2.67
2019-05-23T08:07:55.023Z,2.52
2019-05-23T08:10:33.826Z,3.08
2019-05-23T08:13:00.515Z,2.67
2019-05-23T08:15:32.035Z,2.83
2019-05-23T08:18:03.878Z,2.80
2019-05-23T08:20:35.264Z,2.52
2019-05-23T08:23:06.647Z,3.25
2019-05-23T08:25:38.130Z,3.08
2019-05-23T08:28:09.798Z,2.80
2019-05-23T08:30:41.300Z,2.77
2019-05-23T08:33:14.560Z,2.85
2019-05-23T08:35:46.246Z,2.70
2019-05-23T08:38:17.851Z,2.83
2019-05-23T08:40:49.770Z,2.72
2019-05-23T08:43:21.041Z,2.90
2019-05-23T08:45:52.365Z,2.67
2019-05-23T08:48:24.027Z,2.77
2019-05-23T08:50:56.131Z,2.75
2019-05-23T08:53:27.491Z,2.55
2019-05-23T08:55:58.776Z,2.75
2019-05-23T08:58:31.729Z,2.98
2019-05-23T09:01:04.059Z,2.55
2019-05-23T09:03:35.431Z,2.70
2019-05-23T09:06:08.863Z,2.77
2019-05-23T09:08:40.930Z,2.85
2019-05-23T09:11:12.237Z,2.90
2019-05-23T09:13:45.554Z,2.62
2019-05-23T09:16:17.336Z,2.67
2019-05-23T09:18:48.636Z,2.30
2019-05-23T09:21:19.949Z,2.67
2019-05-23T09:23:51.259Z,2.85
2019-05-23T09:26:22.763Z,2.72
2019-05-23T09:28:55.989Z,3.10
2019-05-23T09:31:27.483Z,2.90
2019-05-23T09:33:58.859Z,2.95
2019-05-23T09:36:30.281Z,3.10
2019-05-23T09:39:01.980Z,2.67
2019-05-23T09:41:33.607Z,2.77
2019-05-23T09:44:05.480Z,2.90
2019-05-23T09:46:36.829Z,2.67
2019-05-23T09:49:11.332Z,2.90
2019-05-23T09:51:42.504Z,3.25
2019-05-23T09:54:14.207Z,2.98
2019-05-23T09:56:45.581Z,2.70
2019-05-23T09:59:16.878Z,2.70
2019-05-23T10:01:48.713Z,2.85
2019-05-23T10:04:21.070Z,2.40
2019-05-23T10:06:52.362Z,2.77
2019-05-23T10:09:23.665Z,2.47
2019-05-23T10:11:55.067Z,2.77
2019-05-23T10:14:29.798Z,2.50
2019-05-23T10:17:01.204Z,3.12
2019-05-23T10:19:33.975Z,2.30
2019-05-23T10:22:06.724Z,3.00
2019-05-23T10:24:38.054Z,2.87
2019-05-23T10:27:10.996Z,2.95
2019-05-23T10:29:42.415Z,2.47
2019-05-23T10:32:14.008Z,3.50
2019-05-23T10:34:45.321Z,3.47
2019-05-23T10:37:18.330Z,3.58
2019-05-23T10:39:54.169Z,4.08
2019-05-23T10:42:27.804Z,3.45
2019-05-23T10:44:59.131Z,3.37
2019-05-23T10:47:30.422Z,3.35
2019-05-23T10:50:07.277Z,3.92
2019-05-23T10:52:35.098Z,3.62
2019-05-23T10:55:06.985Z,3.58
2019-05-23T10:57:38.257Z,4.10
2019-05-23T11:00:11.059Z,3.45
2019-05-23T11:02:43.091Z,3.35
2019-05-23T11:05:14.881Z,3.17
2019-05-23T11:07:46.244Z,3.37
2019-05-23T11:10:17.546Z,3.25
2019-05-23T11:12:48.867Z,3.58
2019-05-23T11:15:20.164Z,2.92
2019-05-23T11:17:53.780Z,3.22
2019-05-23T11:20:24.521Z,3.25
2019-05-23T11:22:55.826Z,3.12
2019-05-23T11:25:28.843Z,2.72
2019-05-23T11:28:00.573Z,2.60
2019-05-23T11:30:38.579Z,2.75
2019-05-23T11:33:10.933Z,2.95
2019-05-23T11:35:44.121Z,2.77
2019-05-23T11:38:15.519Z,2.80
2019-05-23T11:40:46.948Z,3.08
2019-05-23T11:43:18.271Z,2.47
2019-05-23T11:46:03.999Z,2.70
2019-05-23T11:48:36.161Z,2.62
2019-05-23T11:51:07.424Z,2.60
2019-05-23T11:53:38.752Z,2.47
2019-05-23T11:56:10.482Z,2.60
2019-05-23T11:58:41.812Z,2.58
2019-05-23T12:01:39.360Z,2.50
2019-05-23T12:04:41.776Z,2.47
2019-05-23T12:07:23.898Z,2.37
2019-05-23T12:09:55.198Z,2.33
2019-05-23T12:12:26.568Z,2.37
2019-05-23T12:14:58.237Z,2.60
2019-05-23T12:17:31.323Z,2.30
2019-05-23T12:20:02.928Z,2.80
2019-05-23T12:22:35.061Z,2.55
2019-05-23T12:25:21.457Z,2.42
2019-05-23T12:27:41.511Z,2.37
2019-05-23T12:30:14.184Z,2.37
2019-05-23T12:32:45.472Z,2.50
2019-05-23T12:35:16.771Z,2.55
2019-05-23T12:37:48.093Z,2.33
2019-05-23T12:40:20.421Z,2.25
2019-05-23T12:42:51.690Z,2.37
2019-05-23T12:45:23.009Z,2.30
2019-05-23T12:47:59.030Z,2.30
2019-05-23T12:50:34.728Z,2.08
2019-05-23T12:53:06.228Z,2.30
2019-05-23T12:55:37.797Z,2.42
2019-05-23T12:58:09.101Z,2.20
2019-05-23T13:00:47.098Z,2.02
2019-05-23T13:03:18.721Z,2.30
2019-05-23T13:05:50.103Z,2.15
2019-05-23T13:08:21.673Z,2.20
2019-05-23T13:10:52.973Z,2.05
2019-05-23T13:13:24.615Z,2.52
2019-05-23T13:15:55.996Z,2.10
2019-05-23T13:18:27.298Z,2.12
2019-05-23T13:20:59.664Z,2.45
2019-05-23T13:23:31.458Z,2.12
2019-05-23T13:26:03.210Z,2.20
2019-05-23T13:28:35.002Z,2.00
2019-05-23T13:31:06.324Z,2.20
2019-05-23T13:33:37.609Z,2.27
2019-05-23T13:36:09.124Z,2.00
2019-05-23T13:38:40.940Z,2.05
2019-05-23T13:41:12.495Z,2.08
2019-05-23T13:43:44.062Z,2.37
2019-05-23T13:46:15.378Z,2.27
2019-05-23T13:48:46.810Z,2.15
2019-05-23T13:51:18.136Z,2.50
2019-05-23T13:53:49.412Z,2.05
2019-05-23T13:56:20.735Z,2.40
2019-05-23T13:58:52.093Z,2.02
2019-05-23T14:01:24.549Z,2.50
2019-05-23T14:03:55.841Z,2.22
2019-05-23T14:06:27.175Z,2.37
2019-05-23T14:08:58.453Z,2.40
2019-05-23T14:11:29.788Z,1.92
2019-05-23T14:14:02.670Z,2.00
2019-05-23T14:16:42.542Z,2.00
2019-05-23T14:19:13.890Z,2.02
2019-05-23T14:21:45.231Z,2.08
2019-05-23T14:24:16.530Z,2.00
2019-05-23T14:26:56.682Z,2.12
2019-05-23T14:29:28.436Z,1.98
2019-05-23T14:35:26.077Z,1.98
2019-05-23T14:37:59.305Z,2.25
2019-05-23T14:40:30.770Z,2.30
2019-05-23T14:43:13.372Z,2.08
2019-05-23T14:45:53.155Z,2.00
2019-05-23T14:48:52.493Z,2.10
2019-05-23T14:51:45.774Z,2.58
2019-05-23T14:54:35.968Z,2.17
2019-05-23T14:57:08.010Z,2.40
2019-05-23T14:59:39.687Z,2.33
2019-05-23T15:02:16.376Z,2.25
2019-05-23T15:04:47.697Z,2.27
2019-05-23T15:07:19.146Z,2.27
2019-05-23T15:09:50.469Z,2.15
2019-05-23T15:12:21.815Z,2.30
2019-05-23T15:14:53.114Z,2.22
2019-05-23T15:17:24.835Z,2.30
2019-05-23T15:19:56.149Z,2.17
2019-05-23T15:22:27.447Z,2.20
2019-05-23T15:24:58.759Z,2.20
2019-05-23T15:27:33.064Z,2.30
2019-05-23T15:30:03.144Z,2.20
2019-05-23T15:32:34.569Z,2.02
2019-05-23T15:35:09.488Z,2.12
2019-05-23T15:37:41.280Z,2.17
2019-05-23T15:40:12.722Z,2.20
2019-05-23T15:42:44.015Z,2.05
2019-05-23T15:45:15.322Z,2.20
2019-05-23T15:47:46.901Z,2.20
2019-05-23T15:50:20.061Z,2.33
2019-05-23T15:52:59.530Z,2.05
2019-05-23T15:55:48.851Z,2.15
2019-05-23T15:58:35.650Z,2.30
2019-05-23T16:01:16.227Z,2.12
2019-05-23T16:03:50.500Z,1.95
2019-05-23T16:06:23.271Z,2.12
2019-05-23T16:08:54.882Z,1.67
2019-05-23T16:11:26.788Z,2.00
2019-05-23T16:13:58.097Z,2.25
2019-05-23T16:16:30.647Z,2.22
2019-05-23T16:19:02.976Z,2.30
2019-05-23T16:21:34.863Z,167.15
2019-05-23T16:24:07.934Z,201.50
2019-05-23T16:26:39.572Z,150.32
2019-05-23T16:29:12.960Z,151.10
2019-05-23T16:31:44.626Z,108.07
2019-05-23T16:34:16.035Z,107.45
2019-05-23T16:36:47.578Z,164.43
2019-05-23T16:39:19.403Z,198.32
2019-05-23T16:41:50.732Z,186.45
2019-05-23T16:44:22.072Z,177.02
2019-05-23T16:46:53.465Z,130.67
2019-05-23T16:49:24.788Z,111.40
2019-05-23T16:51:56.104Z,92.55
2019-05-23T16:54:32.181Z,82.35
2019-05-23T16:57:12.786Z,86.80
2019-05-23T16:59:52.308Z,125.72
2019-05-23T17:02:51.749Z,146.18
2019-05-23T17:05:45.741Z,156.18
2019-05-23T17:08:48.354Z,140.92
2019-05-23T17:11:41.422Z,138.35
2019-05-23T17:14:35.714Z,135.55
2019-05-23T17:17:38.056Z,152.75
2019-05-23T17:20:19.683Z,169.47
2019-05-23T17:23:06.870Z,159.40
2019-05-23T17:25:55.419Z,140.25
2019-05-23T17:28:39.205Z,125.47
2019-05-23T17:31:13.306Z,122.72
2019-05-23T17:33:44.984Z,126.67
2019-05-23T17:36:17.059Z,134.22
2019-05-23T17:38:48.674Z,145.70
2019-05-23T17:41:20.381Z,138.60
2019-05-23T17:43:52.843Z,129.75
2019-05-23T17:46:24.176Z,113.95
2019-05-23T17:48:55.512Z,98.55
2019-05-23T17:51:27.020Z,103.00
2019-05-23T17:53:58.408Z,93.17
2019-05-23T17:56:30.117Z,105.95
2019-05-23T17:59:01.471Z,116.93
2019-05-23T18:01:33.355Z,126.22
2019-05-23T18:04:05.651Z,123.22
2019-05-23T18:06:37.060Z,116.20
2019-05-23T18:09:09.685Z,97.25
2019-05-23T18:11:41.351Z,64.47
2019-05-23T18:14:12.917Z,47.65
2019-05-23T18:16:44.457Z,50.70
2019-05-23T18:19:16.573Z,51.73
2019-05-23T18:21:51.222Z,46.45
2019-05-23T18:24:23.821Z,54.18
2019-05-23T18:26:55.173Z,63.40
2019-05-23T18:29:26.830Z,84.90
2019-05-23T18:31:59.416Z,89.00
2019-05-23T18:34:31.240Z,86.97
2019-05-23T18:37:02.664Z,77.92
2019-05-23T18:39:35.721Z,68.57
2019-05-23T18:42:07.416Z,62.20
2019-05-23T18:44:39.357Z,49.08
2019-05-23T18:47:16.249Z,36.65
2019-05-23T18:49:47.705Z,34.23
2019-05-23T18:54:51.493Z,27.65
2019-05-23T18:57:22.991Z,25.25
2019-05-23T18:59:54.410Z,33.10
2019-05-23T19:02:26.289Z,42.13
2019-05-23T19:04:58.285Z,42.00
2019-05-23T19:07:29.711Z,50.38
2019-05-23T19:10:01.307Z,52.05
2019-05-23T19:12:32.686Z,54.03
2019-05-23T19:15:04.224Z,50.83
2019-05-23T19:17:36.003Z,45.65
2019-05-23T19:20:07.888Z,44.63
2019-05-23T19:22:39.568Z,54.33
2019-05-23T19:25:12.064Z,52.53
2019-05-23T19:27:44.733Z,66.95
2019-05-23T19:30:16.318Z,62.55
2019-05-23T19:32:49.216Z,58.42
2019-05-23T19:35:20.900Z,54.83
2019-05-23T19:37:52.285Z,49.30
2019-05-23T19:40:24.297Z,43.40
2019-05-23T19:42:55.632Z,40.05
2019-05-23T19:45:27.292Z,35.08
2019-05-23T19:47:58.763Z,28.10
2019-05-23T19:50:30.321Z,23.07
2019-05-23T19:53:01.723Z,21.65
2019-05-23T19:55:33.571Z,19.17
2019-05-23T19:58:06.170Z,17.27
2019-05-23T20:00:38.363Z,15.95
2019-05-23T20:03:09.880Z,22.42
2019-05-23T20:05:41.763Z,20.62
2019-05-23T20:08:13.074Z,18.87
2019-05-23T20:10:44.562Z,28.98
2019-05-23T20:13:18.522Z,35.70
2019-05-23T20:15:49.826Z,43.75
2019-05-23T20:18:21.818Z,43.00
2019-05-23T20:20:53.217Z,39.23
2019-05-23T20:23:24.560Z,35.85
2019-05-23T20:25:56.096Z,35.28
2019-05-23T20:28:27.568Z,32.30
2019-05-23T20:30:59.763Z,30.90
2019-05-23T20:33:31.040Z,34.92
2019-05-23T20:36:04.689Z,37.67
2019-05-23T20:38:36.274Z,35.45
2019-05-23T20:41:07.582Z,32.15
2019-05-23T20:43:38.887Z,31.57
2019-05-23T20:46:10.426Z,31.48
2019-05-23T20:48:42.116Z,28.45
2019-05-23T20:51:14.380Z,26.97
2019-05-23T20:53:45.816Z,26.30
2019-05-23T20:56:17.131Z,22.13
2019-05-23T20:58:48.449Z,20.08
2019-05-23T21:01:23.505Z,18.85
2019-05-23T21:03:56.160Z,15.65
2019-05-23T21:06:27.533Z,14.15
2019-05-23T21:08:58.910Z,13.22
2019-05-23T21:11:30.397Z,12.18
2019-05-23T21:14:01.698Z,11.60
2019-05-23T21:16:33.008Z,10.70
2019-05-23T21:19:04.327Z,8.93
2019-05-23T21:21:35.751Z,8.88
2019-05-23T21:24:07.243Z,7.92
2019-05-23T21:26:38.862Z,7.97
2019-05-23T21:29:10.187Z,7.42
2019-05-23T21:31:41.521Z,7.00
2019-05-23T21:34:12.997Z,5.78
2019-05-23T21:36:44.679Z,5.00
2019-05-23T21:39:17.591Z,5.37
2019-05-23T21:41:48.888Z,4.53
2019-05-23T21:44:20.158Z,4.22
2019-05-23T21:46:51.565Z,4.25
2019-05-23T21:49:22.857Z,4.30
2019-05-23T21:51:54.126Z,4.05
2019-05-23T21:54:25.405Z,3.65
2019-05-23T21:56:57.320Z,3.35
2019-05-23T21:59:28.613Z,4.00
2019-05-23T22:02:19.242Z,3.45
2019-05-23T22:04:54.257Z,2.90
2019-05-23T22:07:25.904Z,3.20
2019-05-23T22:09:57.195Z,3.00
2019-05-23T22:12:28.686Z,2.65
2019-05-23T22:15:01.753Z,2.83
2019-05-23T22:17:33.377Z,2.75
2019-05-23T22:20:04.676Z,2.60
2019-05-23T22:22:36.013Z,2.90
2019-05-23T22:25:07.887Z,2.55
2019-05-23T22:27:39.245Z,2.62
2019-05-23T22:30:10.877Z,5.53
2019-05-23T22:32:42.474Z,14.23
2019-05-23T22:35:16.943Z,21.57
2019-05-23T22:37:48.286Z,32.35
2019-05-23T22:40:19.826Z,35.78
2019-05-23T22:42:51.138Z,36.40
2019-05-23T22:45:24.394Z,37.28
2019-05-23T22:47:55.686Z,35.63
2019-05-23T22:50:26.993Z,31.48
2019-05-23T22:52:58.296Z,28.30
2019-05-23T22:55:29.781Z,24.27
2019-05-23T22:58:01.149Z,20.40
2019-05-23T23:00:35.192Z,17.85
2019-05-23T23:03:07.689Z,16.10
2019-05-23T23:05:39.326Z,13.65
2019-05-23T23:08:10.646Z,12.18
2019-05-23T23:10:42.259Z,11.30
2019-05-23T23:13:14.289Z,9.90
2019-05-23T23:15:45.628Z,9.23
2019-05-23T23:18:16.905Z,8.30
2019-05-23T23:20:48.241Z,7.65
2019-05-23T23:23:19.565Z,6.70
2019-05-23T23:25:50.878Z,6.05
2019-05-23T23:28:22.646Z,5.05
2019-05-23T23:30:54.107Z,5.00
2019-05-23T23:33:25.425Z,4.87
2019-05-23T23:35:56.710Z,4.40
2019-05-23T23:38:28.001Z,4.03
2019-05-23T23:40:59.309Z,4.00
2019-05-23T23:43:30.655Z,3.95
2019-05-23T23:46:19.743Z,3.77
2019-05-23T23:49:08.604Z,3.52
2019-05-23T23:51:57.428Z,3.25
2019-05-23T23:54:46.498Z,3.25
2019-05-23T23:57:35.883Z,3.02
